createdAt,value
2018-08-10T00:01:22.224Z,1.70
2018-08-10T00:04:20.304Z,1.77
2018-08-10T00:07:18.357Z,1.40
2018-08-10T00:10:15.456Z,1.33
2018-08-10T00:13:12.402Z,1.77
2018-08-10T00:16:10.622Z,1.40
2018-08-10T00:19:08.420Z,1.50
2018-08-10T00:22:05.839Z,1.50
2018-08-10T00:25:03.755Z,1.40
2018-08-10T00:28:01.834Z,1.30
2018-08-10T00:30:58.907Z,1.37
2018-08-10T00:33:56.159Z,1.03
2018-08-10T00:36:53.393Z,1.40
2018-08-10T00:39:51.080Z,1.10
2018-08-10T00:42:49.143Z,1.00
2018-08-10T00:45:46.307Z,1.00
2018-08-10T00:48:43.793Z,1.20
2018-08-10T00:51:40.844Z,1.20
2018-08-10T00:54:37.999Z,2.13
2018-08-10T00:57:35.932Z,1.93
2018-08-10T01:00:36.202Z,2.40
2018-08-10T01:03:33.170Z,2.90
2018-08-10T01:06:30.295Z,2.23
2018-08-10T01:09:29.203Z,2.27
2018-08-10T01:12:27.143Z,2.60
2018-08-10T01:15:25.275Z,2.50
2018-08-10T01:18:23.296Z,2.10
2018-08-10T01:21:21.264Z,2.33
2018-08-10T01:24:19.163Z,2.20
2018-08-10T01:27:23.267Z,2.00
2018-08-10T01:30:21.194Z,2.17
2018-08-10T01:33:19.106Z,2.37
2018-08-10T01:36:16.896Z,2.00
2018-08-10T01:39:14.762Z,1.87
2018-08-10T01:42:12.144Z,1.80
2018-08-10T01:45:09.777Z,1.40
2018-08-10T01:48:07.332Z,1.33
2018-08-10T01:51:04.623Z,1.33
2018-08-10T01:54:02.595Z,1.47
2018-08-10T01:56:59.835Z,1.53
2018-08-10T01:59:57.778Z,1.53
2018-08-10T02:02:55.599Z,1.50
2018-08-10T02:05:53.562Z,1.60
2018-08-10T02:08:51.519Z,1.33
2018-08-10T02:11:49.723Z,1.40
2018-08-10T02:14:46.988Z,1.30
2018-08-10T02:17:44.931Z,1.30
2018-08-10T02:20:42.939Z,1.10
2018-08-10T02:23:40.195Z,1.30
2018-08-10T02:26:38.375Z,1.67
2018-08-10T02:29:35.623Z,1.33
2018-08-10T02:32:33.625Z,1.43
2018-08-10T02:35:30.864Z,1.67
2018-08-10T02:38:28.799Z,1.47
2018-08-10T02:41:26.839Z,1.50
2018-08-10T02:44:24.056Z,1.43
2018-08-10T02:47:26.020Z,1.63
2018-08-10T02:50:23.483Z,1.27
2018-08-10T02:53:20.603Z,1.23
2018-08-10T02:56:17.835Z,1.40
2018-08-10T02:59:15.144Z,1.87
2018-08-10T03:02:12.502Z,1.77
2018-08-10T03:05:09.774Z,1.80
2018-08-10T03:08:07.760Z,1.40
2018-08-10T03:11:05.171Z,1.70
2018-08-10T03:14:03.100Z,2.00
2018-08-10T03:17:00.129Z,1.70
2018-08-10T03:19:58.059Z,1.50
2018-08-10T03:22:55.788Z,1.80
2018-08-10T03:25:52.815Z,1.53
2018-08-10T03:28:50.732Z,2.17
2018-08-10T03:31:48.190Z,2.00
2018-08-10T03:34:46.184Z,2.17
2018-08-10T03:37:44.231Z,1.70
2018-08-10T03:40:42.084Z,1.90
2018-08-10T03:43:39.948Z,2.00
2018-08-10T03:46:36.923Z,1.77
2018-08-10T03:49:34.092Z,2.17
2018-08-10T03:52:31.890Z,2.33
2018-08-10T03:55:29.153Z,2.30
2018-08-10T03:58:26.240Z,1.80
2018-08-10T04:01:24.212Z,2.00
2018-08-10T04:04:22.338Z,2.10
2018-08-10T04:07:20.475Z,1.90
2018-08-10T04:10:17.631Z,1.87
2018-08-10T04:13:15.484Z,1.90
2018-08-10T04:16:13.067Z,2.03
2018-08-10T04:19:10.615Z,1.70
2018-08-10T04:22:07.804Z,1.80
2018-08-10T04:25:05.035Z,2.10
2018-08-10T04:28:03.159Z,2.00
2018-08-10T04:31:01.272Z,1.80
2018-08-10T04:33:58.467Z,1.83
2018-08-10T04:36:56.437Z,1.80
2018-08-10T04:39:54.422Z,1.90
2018-08-10T04:42:52.391Z,2.20
2018-08-10T04:45:49.919Z,1.53
2018-08-10T04:48:47.103Z,2.07
2018-08-10T04:51:45.048Z,1.90
2018-08-10T04:54:43.060Z,2.30
2018-08-10T04:57:40.980Z,1.93
2018-08-10T05:00:38.912Z,2.30
2018-08-10T05:03:36.080Z,2.20
2018-08-10T05:06:33.715Z,1.97
2018-08-10T05:09:31.865Z,2.00
2018-08-10T05:12:29.127Z,1.90
2018-08-10T05:15:27.438Z,2.30
2018-08-10T05:18:25.012Z,2.17
2018-08-10T05:21:23.100Z,2.17
2018-08-10T05:24:20.135Z,2.40
2018-08-10T05:27:17.643Z,2.77
2018-08-10T05:30:16.803Z,2.47
2018-08-10T05:33:14.115Z,2.27
2018-08-10T05:36:11.838Z,2.40
2018-08-10T05:39:09.188Z,2.23
2018-08-10T05:42:06.759Z,2.97
2018-08-10T05:45:04.947Z,2.40
2018-08-10T05:48:02.894Z,2.23
2018-08-10T05:51:00.083Z,2.40
2018-08-10T05:53:58.037Z,2.50
2018-08-10T05:56:55.179Z,2.40
2018-08-10T05:59:53.271Z,2.40
2018-08-10T06:02:51.339Z,2.30
2018-08-10T06:05:49.416Z,2.40
2018-08-10T06:08:47.479Z,2.40
2018-08-10T06:11:45.560Z,2.53
2018-08-10T06:14:43.507Z,2.57
2018-08-10T06:17:40.815Z,2.37
2018-08-10T06:20:38.012Z,2.80
2018-08-10T06:23:35.316Z,2.80
2018-08-10T06:26:32.419Z,2.53
2018-08-10T06:29:30.235Z,2.30
2018-08-10T06:32:27.175Z,2.50
2018-08-10T06:35:25.056Z,2.10
2018-08-10T06:38:22.227Z,2.10
2018-08-10T06:41:20.307Z,1.77
2018-08-10T06:44:18.171Z,1.80
2018-08-10T06:47:15.591Z,2.07
2018-08-10T06:50:12.641Z,1.80
2018-08-10T06:53:09.965Z,1.40
2018-08-10T06:56:07.692Z,1.67
2018-08-10T06:59:04.904Z,1.70
2018-08-10T07:02:01.981Z,2.20
2018-08-10T07:04:59.146Z,1.60
2018-08-10T07:07:56.390Z,1.90
2018-08-10T07:10:54.388Z,1.80
2018-08-10T07:13:52.473Z,2.00
2018-08-10T07:16:50.555Z,1.90
2018-08-10T07:19:47.556Z,2.00
2018-08-10T07:22:44.639Z,2.23
2018-08-10T07:25:42.705Z,2.43
2018-08-10T07:28:39.895Z,2.10
2018-08-10T07:31:37.080Z,1.80
2018-08-10T07:34:35.018Z,2.10
2018-08-10T07:37:32.910Z,2.03
2018-08-10T07:40:30.744Z,2.07
2018-08-10T07:43:27.966Z,2.10
2018-08-10T07:46:25.872Z,1.60
2018-08-10T07:49:23.732Z,2.03
2018-08-10T07:52:21.574Z,1.70
2018-08-10T07:55:18.803Z,1.60
2018-08-10T07:58:16.924Z,1.70
2018-08-10T08:01:15.036Z,1.70
2018-08-10T08:04:12.784Z,1.50
2018-08-10T08:07:10.832Z,1.80
2018-08-10T08:10:08.879Z,2.00
2018-08-10T08:13:06.144Z,1.47
2018-08-10T08:16:04.099Z,1.33
2018-08-10T08:19:02.176Z,1.00
2018-08-10T08:22:31.972Z,1.70
2018-08-10T08:25:29.941Z,1.63
2018-08-10T08:28:31.152Z,1.40
2018-08-10T08:31:28.470Z,1.50
2018-08-10T08:34:28.458Z,1.47
2018-08-10T08:37:26.391Z,1.77
2018-08-10T08:40:31.730Z,1.73
2018-08-10T08:43:29.179Z,1.50
2018-08-10T08:46:26.752Z,1.73
2018-08-10T08:49:23.837Z,1.90
2018-08-10T08:52:21.970Z,1.70
2018-08-10T08:55:31.387Z,1.40
2018-08-10T08:58:28.562Z,1.63
2018-08-10T09:01:25.942Z,1.60
2018-08-10T09:04:43.647Z,1.23
2018-08-10T09:07:40.953Z,1.47
2018-08-10T09:10:38.901Z,1.47
2018-08-10T09:13:36.159Z,1.57
2018-08-10T09:16:34.238Z,1.37
2018-08-10T09:19:31.424Z,1.37
2018-08-10T09:22:29.152Z,1.60
2018-08-10T09:25:30.412Z,1.70
2018-08-10T09:28:28.054Z,1.50
2018-08-10T09:31:25.066Z,1.30
2018-08-10T09:34:23.238Z,1.40
2018-08-10T09:37:20.474Z,1.20
2018-08-10T09:40:21.402Z,1.47
2018-08-10T09:43:19.535Z,1.30
2018-08-10T09:46:17.470Z,1.70
2018-08-10T09:49:15.367Z,1.77
2018-08-10T09:52:12.550Z,1.73
2018-08-10T09:55:45.343Z,1.67
2018-08-10T09:58:42.634Z,1.70
2018-08-10T10:01:47.079Z,1.70
2018-08-10T10:04:44.505Z,1.90
2018-08-10T10:07:42.551Z,1.80
2018-08-10T10:10:40.279Z,1.67
2018-08-10T10:13:37.533Z,1.80
2018-08-10T10:16:35.488Z,1.67
2018-08-10T10:19:33.556Z,1.87
2018-08-10T10:22:30.861Z,1.97
2018-08-10T10:25:28.409Z,2.37
2018-08-10T10:28:26.276Z,2.10
2018-08-10T10:31:24.050Z,1.93
2018-08-10T10:34:21.884Z,2.13
2018-08-10T10:37:19.388Z,1.70
2018-08-10T10:40:17.258Z,1.80
2018-08-10T10:43:14.270Z,1.70
2018-08-10T10:46:12.289Z,2.03
2018-08-10T10:49:10.605Z,2.13
2018-08-10T10:52:07.915Z,2.03
2018-08-10T10:55:05.983Z,1.90
2018-08-10T10:58:04.049Z,1.87
2018-08-10T11:01:01.157Z,1.80
2018-08-10T11:03:59.383Z,1.60
2018-08-10T11:06:57.104Z,1.50
2018-08-10T11:09:55.001Z,1.73
2018-08-10T11:12:51.975Z,1.63
2018-08-10T11:15:49.981Z,1.60
2018-08-10T11:18:47.120Z,1.50
2018-08-10T11:21:44.803Z,1.63
2018-08-10T11:24:42.771Z,1.90
2018-08-10T11:27:40.317Z,2.33
2018-08-10T11:30:38.153Z,1.80
2018-08-10T11:33:35.675Z,2.17
2018-08-10T11:36:33.590Z,1.60
2018-08-10T11:39:31.756Z,2.10
2018-08-10T11:42:28.894Z,1.83
2018-08-10T11:45:26.229Z,2.20
2018-08-10T11:48:24.193Z,2.60
2018-08-10T11:51:22.193Z,1.83
2018-08-10T11:54:19.422Z,2.00
2018-08-10T11:57:16.549Z,1.70
2018-08-10T12:00:14.463Z,1.47
2018-08-10T12:03:12.605Z,1.57
2018-08-10T12:06:10.314Z,1.90
2018-08-10T12:09:08.410Z,1.70
2018-08-10T12:12:05.576Z,1.63
2018-08-10T12:15:03.731Z,1.80
2018-08-10T12:18:00.885Z,2.03
2018-08-10T12:20:57.936Z,1.60
2018-08-10T12:23:55.151Z,1.77
2018-08-10T12:26:52.370Z,1.80
2018-08-10T12:29:50.498Z,1.67
2018-08-10T12:32:47.890Z,2.00
2018-08-10T12:35:45.152Z,1.50
2018-08-10T12:38:42.287Z,1.80
2018-08-10T12:41:39.560Z,1.70
2018-08-10T12:44:36.588Z,1.40
2018-08-10T12:47:34.176Z,1.30
2018-08-10T12:50:31.614Z,1.10
2018-08-10T12:53:29.552Z,1.30
2018-08-10T12:56:27.694Z,1.50
2018-08-10T12:59:25.546Z,1.30
2018-08-10T13:02:23.783Z,1.23
2018-08-10T13:05:22.124Z,1.47
2018-08-10T13:08:19.251Z,1.17
2018-08-10T13:11:17.300Z,1.40
2018-08-10T13:14:15.358Z,1.20
2018-08-10T13:17:12.435Z,1.20
2018-08-10T13:20:09.522Z,1.50
2018-08-10T13:23:06.715Z,1.50
2018-08-10T13:26:04.327Z,1.77
2018-08-10T13:29:01.612Z,1.40
2018-08-10T13:31:59.718Z,1.47
2018-08-10T13:34:57.563Z,1.40
2018-08-10T13:37:55.051Z,1.17
2018-08-10T13:40:53.086Z,1.60
2018-08-10T13:43:50.547Z,1.10
2018-08-10T13:46:47.665Z,1.50
2018-08-10T13:49:45.538Z,1.10
2018-08-10T13:52:43.514Z,1.77
2018-08-10T13:55:41.011Z,1.40
2018-08-10T13:58:38.281Z,1.63
2018-08-10T14:02:20.420Z,1.57
2018-08-10T14:05:18.033Z,1.40
2018-08-10T14:08:15.940Z,1.53
2018-08-10T14:11:13.837Z,1.40
2018-08-10T14:14:11.745Z,1.13
2018-08-10T14:17:09.543Z,1.40
2018-08-10T14:20:06.830Z,1.73
2018-08-10T14:23:04.780Z,1.30
2018-08-10T14:26:01.910Z,1.50
2018-08-10T14:28:59.747Z,1.30
2018-08-10T14:31:57.465Z,1.20
2018-08-10T14:34:55.416Z,1.10
2018-08-10T14:37:53.550Z,1.17
2018-08-10T14:40:51.467Z,1.23
2018-08-10T14:43:49.492Z,1.30
2018-08-10T14:46:46.528Z,1.23
2018-08-10T14:49:44.278Z,1.30
2018-08-10T14:52:42.152Z,1.90
2018-08-10T14:55:40.166Z,1.07
2018-08-10T14:58:38.233Z,1.33
2018-08-10T15:01:36.323Z,1.20
2018-08-10T15:04:34.109Z,1.17
2018-08-10T15:07:32.134Z,1.50
2018-08-10T15:10:31.151Z,1.30
2018-08-10T15:13:29.101Z,1.17
2018-08-10T15:16:27.207Z,1.43
2018-08-10T15:19:25.059Z,1.30
2018-08-10T15:22:23.046Z,0.87
2018-08-10T15:25:20.732Z,1.50
2018-08-10T15:28:19.503Z,1.47
2018-08-10T15:31:21.736Z,1.20
2018-08-10T15:34:19.298Z,1.23
2018-08-10T15:37:17.129Z,1.50
2018-08-10T15:40:16.133Z,1.30
2018-08-10T15:43:13.955Z,1.50
2018-08-10T15:46:12.076Z,1.53
2018-08-10T15:49:10.041Z,1.70
2018-08-10T15:52:10.030Z,1.30
2018-08-10T15:55:07.775Z,1.20
2018-08-10T15:58:05.148Z,1.30
2018-08-10T16:01:06.001Z,1.60
2018-08-10T16:04:03.293Z,1.30
2018-08-10T16:07:01.238Z,1.10
2018-08-10T16:09:59.398Z,2.83
2018-08-10T16:12:56.994Z,1.93
2018-08-10T16:15:54.860Z,1.83
2018-08-10T16:18:52.865Z,1.73
2018-08-10T16:21:50.675Z,1.33
2018-08-10T16:24:48.821Z,1.10
2018-08-10T16:27:48.020Z,1.27
2018-08-10T16:30:45.986Z,1.07
2018-08-10T16:33:44.007Z,1.30
2018-08-10T16:36:42.006Z,1.60
2018-08-10T16:39:39.934Z,2.20
2018-08-10T16:42:37.957Z,3.17
2018-08-10T16:45:35.972Z,2.00
2018-08-10T16:48:33.707Z,1.63
2018-08-10T16:51:31.824Z,1.57
2018-08-10T16:54:28.848Z,2.00
2018-08-10T16:57:26.819Z,1.50
2018-08-10T17:00:25.801Z,1.53
2018-08-10T17:03:23.987Z,1.63
2018-08-10T17:06:21.354Z,4.90
2018-08-10T17:09:20.423Z,11.53
2018-08-10T17:12:17.838Z,4.47
2018-08-10T17:15:15.447Z,2.33
2018-08-10T17:18:13.002Z,3.63
2018-08-10T17:21:10.647Z,9.30
2018-08-10T17:24:08.123Z,3.33
2018-08-10T17:27:05.640Z,5.20
2018-08-10T17:30:03.036Z,6.40
2018-08-10T17:33:00.506Z,5.13
2018-08-10T17:35:57.971Z,9.40
2018-08-10T17:38:55.481Z,5.57
2018-08-10T17:41:52.879Z,5.90
2018-08-10T17:44:50.332Z,2.43
2018-08-10T17:47:47.787Z,3.07
2018-08-10T17:50:45.275Z,3.30
2018-08-10T17:53:42.147Z,2.33
2018-08-10T17:56:39.588Z,1.90
2018-08-10T17:59:37.136Z,1.40
2018-08-10T18:02:34.705Z,4.43
2018-08-10T18:05:32.288Z,1.20
2018-08-10T18:08:29.875Z,1.50
2018-08-10T18:11:27.512Z,1.37
2018-08-10T18:14:25.063Z,1.47
2018-08-10T18:17:22.680Z,1.40
2018-08-10T18:20:22.146Z,1.30
2018-08-10T18:23:19.695Z,1.40
2018-08-10T18:26:17.236Z,1.30
2018-08-10T18:29:14.827Z,1.33
2018-08-10T18:32:12.428Z,1.10
2018-08-10T18:35:10.093Z,1.23
2018-08-10T18:38:07.721Z,1.10
2018-08-10T18:41:05.289Z,1.37
2018-08-10T18:44:02.886Z,1.77
2018-08-10T18:47:00.269Z,2.30
2018-08-10T18:49:57.618Z,1.50
2018-08-10T18:52:55.287Z,1.83
2018-08-10T18:55:52.962Z,1.40
2018-08-10T18:58:50.406Z,1.40
2018-08-10T19:01:48.109Z,1.40
2018-08-10T19:04:45.755Z,1.50
2018-08-10T19:07:43.311Z,2.17
2018-08-10T19:10:41.881Z,1.97
2018-08-10T19:13:39.053Z,2.03
2018-08-10T19:16:36.567Z,1.97
2018-08-10T19:19:34.115Z,1.83
2018-08-10T19:22:31.755Z,1.97
2018-08-10T19:25:29.173Z,1.63
2018-08-10T19:28:26.866Z,1.50
2018-08-10T19:31:24.383Z,2.13
2018-08-10T19:34:22.036Z,3.67
2018-08-10T19:37:19.642Z,11.27
2018-08-10T19:40:18.113Z,6.40
2018-08-10T19:43:15.599Z,4.00
2018-08-10T19:46:13.098Z,3.27
2018-08-10T19:49:10.726Z,1.90
2018-08-10T19:52:08.249Z,1.83
2018-08-10T19:55:05.741Z,2.10
2018-08-10T19:58:03.456Z,1.63
2018-08-10T20:01:00.919Z,1.50
2018-08-10T20:03:58.552Z,1.73
2018-08-10T20:06:56.236Z,2.70
2018-08-10T20:13:14.000Z,2.13
2018-08-10T20:16:12.041Z,3.20
2018-08-10T20:19:10.097Z,2.60
2018-08-10T20:22:08.204Z,3.57
2018-08-10T20:25:06.382Z,2.37
2018-08-10T20:28:04.401Z,2.20
2018-08-10T20:31:02.344Z,2.23
2018-08-10T20:34:00.184Z,2.13
2018-08-10T20:36:58.227Z,2.17
2018-08-10T20:39:56.132Z,1.93
2018-08-10T20:42:54.121Z,2.00
2018-08-10T20:45:51.970Z,2.40
2018-08-10T20:48:49.909Z,2.20
2018-08-10T20:51:47.956Z,1.97
2018-08-10T20:54:45.795Z,2.07
2018-08-10T20:57:43.752Z,2.10
2018-08-10T21:00:41.777Z,1.97
2018-08-10T21:03:39.692Z,2.50
2018-08-10T21:06:37.694Z,2.47
2018-08-10T21:09:35.756Z,2.43
2018-08-10T21:12:33.852Z,1.87
2018-08-10T21:15:31.870Z,1.40
2018-08-10T21:18:29.649Z,1.23
2018-08-10T21:21:27.527Z,1.40
2018-08-10T21:24:25.342Z,1.70
2018-08-10T21:27:23.275Z,1.40
2018-08-10T21:30:24.386Z,1.33
2018-08-10T21:33:22.296Z,1.17
2018-08-10T21:36:20.312Z,1.20
2018-08-10T21:39:20.415Z,1.57
2018-08-10T21:42:18.379Z,1.47
2018-08-10T21:45:15.471Z,1.10
2018-08-10T21:48:14.333Z,1.60
2018-08-10T21:51:12.105Z,1.30
2018-08-10T21:54:09.839Z,1.73
2018-08-10T21:57:07.744Z,1.33
2018-08-10T22:00:05.636Z,1.00
2018-08-10T22:03:03.515Z,1.27
2018-08-10T22:06:01.490Z,1.50
2018-08-10T22:08:59.427Z,1.47
2018-08-10T22:11:57.068Z,1.33
2018-08-10T22:15:01.239Z,1.77
2018-08-10T22:18:05.159Z,1.50
2018-08-10T22:21:04.166Z,1.13
2018-08-10T22:24:01.996Z,1.37
2018-08-10T22:27:00.188Z,1.60
2018-08-10T22:29:58.124Z,1.17
2018-08-10T22:32:55.823Z,1.10
2018-08-10T22:36:00.723Z,2.03
2018-08-10T22:38:58.478Z,1.30
2018-08-10T22:41:56.295Z,1.40
2018-08-10T22:44:54.032Z,1.17
2018-08-10T22:47:52.028Z,1.23
2018-08-10T22:50:49.955Z,1.20
2018-08-10T22:53:48.186Z,1.33
2018-08-10T22:56:45.971Z,1.10
2018-08-10T22:59:43.720Z,1.30
2018-08-10T23:02:41.611Z,1.10
2018-08-10T23:05:39.323Z,1.37
2018-08-10T23:08:37.306Z,1.20
2018-08-10T23:11:35.043Z,1.10
2018-08-10T23:14:33.131Z,1.20
2018-08-10T23:17:31.099Z,1.10
2018-08-10T23:20:29.975Z,1.40
2018-08-10T23:23:27.670Z,1.30
2018-08-10T23:26:25.711Z,1.33
2018-08-10T23:29:23.737Z,1.43
2018-08-10T23:32:21.705Z,1.17
2018-08-10T23:35:19.606Z,1.20
2018-08-10T23:38:17.592Z,1.00
2018-08-10T23:41:15.655Z,0.90
2018-08-10T23:44:13.563Z,1.43
2018-08-10T23:47:11.616Z,1.13
2018-08-10T23:50:09.615Z,1.07
2018-08-10T23:53:07.692Z,1.10
2018-08-10T23:56:04.844Z,0.90
2018-08-10T23:59:02.862Z,1.07
